createdAt,value
2023-02-04T00:00:31.328Z,6.46
2023-02-04T00:03:00.139Z,7.02
2023-02-04T00:05:28.754Z,7.13
2023-02-04T00:07:58.094Z,7.33
2023-02-04T00:10:26.755Z,7.41
2023-02-04T00:12:55.100Z,7.52
2023-02-04T00:15:23.696Z,7.61
2023-02-04T00:17:52.972Z,7.58
2023-02-04T00:20:21.520Z,7.46
2023-02-04T00:22:51.655Z,7.30
2023-02-04T00:25:20.123Z,7.33
2023-02-04T00:27:49.667Z,7.33
2023-02-04T00:30:19.669Z,7.19
2023-02-04T00:32:48.304Z,6.96
2023-02-04T00:35:17.028Z,6.95
2023-02-04T00:37:45.546Z,6.78
2023-02-04T00:40:14.226Z,7.02
2023-02-04T00:42:45.917Z,6.96
2023-02-04T00:45:15.203Z,6.99
2023-02-04T00:47:43.882Z,6.87
2023-02-04T00:50:12.983Z,6.87
2023-02-04T00:52:42.172Z,7.08
2023-02-04T00:55:12.539Z,7.20
2023-02-04T00:57:41.116Z,7.14
2023-02-04T01:00:10.522Z,7.25
2023-02-04T01:02:41.054Z,6.94
2023-02-04T01:05:10.712Z,6.90
2023-02-04T01:07:43.136Z,7.08
2023-02-04T01:10:14.968Z,6.94
2023-02-04T01:12:47.946Z,6.81
2023-02-04T01:15:17.270Z,6.80
2023-02-04T01:17:46.765Z,6.79
2023-02-04T01:20:15.213Z,6.80
2023-02-04T01:22:43.485Z,6.55
2023-02-04T01:25:12.003Z,6.62
2023-02-04T01:27:44.818Z,6.69
2023-02-04T01:30:14.591Z,6.67
2023-02-04T01:32:44.444Z,6.64
2023-02-04T01:35:13.083Z,6.41
2023-02-04T01:37:42.944Z,6.26
2023-02-04T01:40:12.360Z,6.56
2023-02-04T01:42:41.757Z,6.69
2023-02-04T01:45:10.823Z,6.54
2023-02-04T01:47:41.112Z,6.40
2023-02-04T01:50:11.958Z,6.45
2023-02-04T01:52:41.091Z,6.45
2023-02-04T01:55:52.909Z,6.14
2023-02-04T01:59:02.825Z,5.45
2023-02-04T02:51:22.179Z,6.30
2023-02-04T03:16:27.532Z,6.55
2023-02-04T03:30:42.436Z,7.14
2023-02-04T03:36:50.718Z,7.57
2023-02-04T03:40:04.498Z,7.70
2023-02-04T04:17:20.685Z,7.62
2023-02-04T04:23:29.437Z,7.79
2023-02-04T04:34:45.867Z,7.65
2023-02-04T04:51:00.836Z,7.19
2023-02-04T04:59:38.716Z,6.77
2023-02-04T05:19:36.796Z,6.64
2023-02-04T05:22:06.309Z,7.09
2023-02-04T05:24:34.971Z,7.43
2023-02-04T05:27:04.137Z,7.53
2023-02-04T05:29:34.355Z,7.49
2023-02-04T05:32:02.943Z,7.41
2023-02-04T05:34:31.321Z,7.50
2023-02-04T05:37:00.676Z,7.47
2023-02-04T05:39:30.150Z,7.35
2023-02-04T05:41:59.127Z,7.58
2023-02-04T05:44:29.265Z,7.66
2023-02-04T05:46:58.150Z,7.61
2023-02-04T05:49:27.064Z,7.48
2023-02-04T05:51:56.331Z,7.47
2023-02-04T05:54:26.352Z,7.53
2023-02-04T05:56:54.848Z,7.69
2023-02-04T05:59:23.557Z,7.81
2023-02-04T06:01:51.959Z,7.87
2023-02-04T06:04:20.759Z,7.91
2023-02-04T06:06:51.553Z,7.82
2023-02-04T06:09:20.288Z,7.78
2023-02-04T06:11:48.764Z,7.86
2023-02-04T06:14:17.477Z,7.88
2023-02-04T06:16:46.166Z,7.94
2023-02-04T06:19:14.814Z,7.89
2023-02-04T06:21:43.414Z,7.95
2023-02-04T06:24:13.256Z,7.97
2023-02-04T06:26:41.867Z,7.92
2023-02-04T06:29:11.336Z,7.95
2023-02-04T06:31:42.378Z,8.01
2023-02-04T06:35:07.474Z,7.99
2023-02-04T06:37:36.897Z,7.91
2023-02-04T06:40:06.463Z,7.89
2023-02-04T06:42:35.530Z,7.88
2023-02-04T06:45:04.258Z,7.87
2023-02-04T06:47:33.315Z,8.05
2023-02-04T06:50:01.996Z,8.03
2023-02-04T06:52:30.990Z,8.13
2023-02-04T06:54:59.739Z,8.01
2023-02-04T06:57:30.231Z,7.92
2023-02-04T07:00:01.265Z,8.08
2023-02-04T07:02:30.750Z,8.17
2023-02-04T07:05:01.449Z,8.08
2023-02-04T07:07:31.055Z,8.01
2023-02-04T07:09:59.707Z,8.13
2023-02-04T07:12:28.514Z,8.05
2023-02-04T07:15:02.062Z,8.08
2023-02-04T07:17:30.989Z,8.13
2023-02-04T07:20:25.500Z,8.25
2023-02-04T07:22:54.492Z,8.11
2023-02-04T07:25:23.686Z,8.33
2023-02-04T07:27:52.215Z,8.41
2023-02-04T07:30:21.472Z,8.26
2023-02-04T07:32:50.273Z,8.22
2023-02-04T07:35:18.861Z,8.17
2023-02-04T07:37:47.434Z,8.34
2023-02-04T07:40:16.249Z,8.56
2023-02-04T07:42:46.787Z,8.66
2023-02-04T07:45:17.730Z,8.61
2023-02-04T07:47:46.628Z,8.68
2023-02-04T07:50:15.414Z,8.73
2023-02-04T07:52:44.588Z,8.71
2023-02-04T07:55:13.453Z,8.75
2023-02-04T07:57:42.387Z,8.67
2023-02-04T08:00:14.482Z,8.85
2023-02-04T08:02:43.783Z,8.85
2023-02-04T08:05:12.959Z,8.97
2023-02-04T08:07:43.993Z,8.88
2023-02-04T08:10:12.609Z,8.85
2023-02-04T08:12:43.068Z,8.82
2023-02-04T08:15:11.551Z,8.75
2023-02-04T08:17:40.652Z,8.68
2023-02-04T08:20:10.025Z,8.73
2023-02-04T08:22:40.369Z,8.78
2023-02-04T08:25:11.695Z,8.84
2023-02-04T08:27:44.123Z,8.93
2023-02-04T08:30:14.974Z,8.72
2023-02-04T08:36:16.253Z,8.83
2023-02-04T08:39:07.764Z,8.92
2023-02-04T08:41:36.553Z,8.87
2023-02-04T08:44:06.167Z,8.93
2023-02-04T08:46:39.015Z,8.71
2023-02-04T08:49:10.720Z,8.55
2023-02-04T08:52:03.193Z,8.49
2023-02-04T08:54:34.966Z,8.55
2023-02-04T08:57:03.970Z,8.74
2023-02-04T08:59:32.547Z,8.72
2023-02-04T09:02:03.453Z,8.71
2023-02-04T09:04:31.901Z,8.78
2023-02-04T09:07:01.068Z,8.60
2023-02-04T09:09:29.800Z,8.77
2023-02-04T09:12:02.251Z,8.87
2023-02-04T09:14:35.018Z,8.80
2023-02-04T09:17:06.035Z,8.91
2023-02-04T09:19:37.499Z,9.03
2023-02-04T09:22:06.753Z,8.97
2023-02-04T09:24:35.273Z,9.00
2023-02-04T09:27:03.926Z,8.87
2023-02-04T09:29:34.020Z,8.77
2023-02-04T09:32:02.729Z,8.64
2023-02-04T09:34:31.915Z,8.62
2023-02-04T09:37:00.463Z,8.59
2023-02-04T09:39:29.271Z,8.70
2023-02-04T09:42:00.340Z,8.69
2023-02-04T09:44:29.151Z,8.76
2023-02-04T09:46:59.867Z,8.77
2023-02-04T09:49:28.760Z,8.79
2023-02-04T09:51:57.308Z,8.89
2023-02-04T09:54:26.260Z,8.80
2023-02-04T09:57:04.680Z,8.82
2023-02-04T10:00:00.327Z,9.13
2023-02-04T10:02:48.587Z,8.99
2023-02-04T10:05:38.431Z,9.14
2023-02-04T10:08:06.869Z,9.17
2023-02-04T10:10:35.801Z,9.21
2023-02-04T10:13:04.975Z,9.37
2023-02-04T10:15:34.728Z,9.36
2023-02-04T10:18:05.182Z,9.22
2023-02-04T10:20:34.196Z,9.15
2023-02-04T10:23:02.830Z,9.32
2023-02-04T10:25:31.357Z,9.42
2023-02-04T10:28:00.572Z,9.46
2023-02-04T10:30:33.986Z,9.36
2023-02-04T10:33:13.706Z,9.23
2023-02-04T10:35:47.039Z,9.25
2023-02-04T10:38:16.128Z,9.27
2023-02-04T10:40:46.420Z,9.23
2023-02-04T10:43:19.083Z,9.10
2023-02-04T10:45:52.515Z,9.13
2023-02-04T10:48:21.500Z,9.22
2023-02-04T10:50:50.120Z,9.28
2023-02-04T10:53:39.240Z,9.41
2023-02-04T10:56:18.624Z,9.55
2023-02-04T10:58:48.438Z,9.56
2023-02-04T11:01:17.540Z,9.52
2023-02-04T11:03:48.208Z,9.63
2023-02-04T11:06:24.008Z,9.64
2023-02-04T11:08:57.970Z,9.54
2023-02-04T11:11:27.563Z,9.70
2023-02-04T11:13:56.012Z,9.65
2023-02-04T11:16:25.990Z,9.77
2023-02-04T11:18:56.277Z,9.90
2023-02-04T11:21:35.025Z,9.82
2023-02-04T11:24:12.674Z,9.78
2023-02-04T11:26:42.317Z,9.75
2023-02-04T11:29:27.743Z,9.72
2023-02-04T11:31:59.049Z,9.81
2023-02-04T11:34:29.435Z,9.90
2023-02-04T11:37:08.355Z,9.82
2023-02-04T11:39:39.986Z,9.83
2023-02-04T11:42:27.990Z,9.89
2023-02-04T11:45:02.083Z,9.94
2023-02-04T11:47:36.964Z,9.89
2023-02-04T11:50:30.787Z,9.91
2023-02-04T11:53:04.801Z,9.82
2023-02-04T11:55:36.367Z,9.73
2023-02-04T11:58:08.905Z,9.80
2023-02-04T12:00:38.552Z,9.83
2023-02-04T12:03:22.183Z,9.90
2023-02-04T12:05:51.396Z,9.79
2023-02-04T12:08:24.022Z,9.61
2023-02-04T12:10:52.527Z,9.62
2023-02-04T12:13:24.795Z,9.54
2023-02-04T12:16:00.297Z,9.34
2023-02-04T12:18:29.663Z,9.32
2023-02-04T12:20:58.659Z,9.27
2023-02-04T12:23:28.540Z,9.25
2023-02-04T12:25:58.391Z,9.00
2023-02-04T12:28:46.687Z,8.82
2023-02-04T12:31:22.970Z,8.71
2023-02-04T12:37:30.387Z,8.95
2023-02-04T12:40:02.888Z,8.91
2023-02-04T12:42:32.990Z,8.90
2023-02-04T12:45:02.268Z,8.99
2023-02-04T12:47:36.994Z,9.27
2023-02-04T12:50:07.987Z,9.21
2023-02-04T12:52:39.897Z,9.11
2023-02-04T13:02:02.777Z,8.92
2023-02-04T13:04:46.559Z,8.94
2023-02-04T13:07:29.271Z,8.68
2023-02-04T13:14:56.734Z,8.66
2023-02-04T13:17:44.776Z,8.75
2023-02-04T13:20:14.415Z,8.84
2023-02-04T13:23:05.532Z,8.64
2023-02-04T13:25:56.305Z,8.59
2023-02-04T13:28:42.395Z,8.37
2023-02-04T13:31:12.580Z,8.36
2023-02-04T13:33:43.386Z,8.45
2023-02-04T13:36:12.224Z,8.50
2023-02-04T13:38:55.563Z,8.41
2023-02-04T13:41:44.364Z,8.31
2023-02-04T13:50:52.186Z,8.34
2023-02-04T13:53:32.424Z,8.39
2023-02-04T13:56:13.740Z,8.31
2023-02-04T13:58:56.428Z,8.23
2023-02-04T14:02:45.030Z,8.30
2023-02-04T14:26:52.024Z,8.17
2023-02-04T14:29:20.599Z,8.37
2023-02-04T14:31:49.509Z,8.30
2023-02-04T14:34:17.957Z,8.20
2023-02-04T14:36:46.524Z,8.19
2023-02-04T14:39:22.404Z,8.00
2023-02-04T14:41:51.320Z,7.81
2023-02-04T14:44:21.142Z,7.99
2023-02-04T14:46:49.812Z,8.08
2023-02-04T14:49:18.312Z,8.08
2023-02-04T14:51:48.010Z,8.08
2023-02-04T14:54:17.803Z,8.10
2023-02-04T14:56:48.369Z,8.09
2023-02-04T14:59:22.793Z,8.11
2023-02-04T15:02:52.252Z,8.06
2023-02-04T15:05:23.248Z,8.15
2023-02-04T15:07:51.932Z,8.19
2023-02-04T15:10:24.880Z,8.17
2023-02-04T15:12:57.698Z,8.09
2023-02-04T15:15:32.697Z,8.11
2023-02-04T15:18:01.254Z,8.18
2023-02-04T15:20:31.736Z,8.18
2023-02-04T15:23:00.956Z,8.17
2023-02-04T15:25:29.645Z,8.19
2023-02-04T15:27:58.204Z,8.09
2023-02-04T15:30:29.416Z,8.09
2023-02-04T15:32:59.447Z,8.05
2023-02-04T15:35:29.596Z,8.03
2023-02-04T15:37:58.937Z,8.07
2023-02-04T15:40:30.353Z,8.21
2023-02-04T15:43:00.546Z,8.26
2023-02-04T15:45:29.935Z,8.34
2023-02-04T15:47:58.449Z,8.33
2023-02-04T15:50:26.956Z,8.28
2023-02-04T15:52:57.835Z,8.29
2023-02-04T15:55:26.767Z,8.38
2023-02-04T15:57:55.308Z,8.46
2023-02-04T16:00:24.682Z,8.45
2023-02-04T16:02:54.050Z,8.41
2023-02-04T16:05:23.039Z,8.34
2023-02-04T16:07:51.885Z,8.33
2023-02-04T16:10:20.535Z,8.27
2023-02-04T16:12:49.648Z,8.18
2023-02-04T16:15:18.560Z,8.08
2023-02-04T16:17:48.176Z,7.98
2023-02-04T16:20:18.006Z,7.90
2023-02-04T16:22:46.910Z,7.94
2023-02-04T16:26:19.118Z,7.89
2023-02-04T16:28:48.163Z,8.02
2023-02-04T16:31:17.040Z,8.06
2023-02-04T16:33:45.585Z,8.06
2023-02-04T16:36:14.382Z,8.04
2023-02-04T16:38:43.831Z,7.95
2023-02-04T16:41:17.446Z,7.81
2023-02-04T16:43:48.835Z,7.72
2023-02-04T16:46:18.317Z,7.60
2023-02-04T16:48:47.113Z,7.61
2023-02-04T16:51:20.682Z,7.85
2023-02-04T16:53:50.700Z,7.93
2023-02-04T16:56:19.356Z,7.97
2023-02-04T16:58:48.591Z,7.97
2023-02-04T17:01:19.656Z,7.93
2023-02-04T17:03:48.108Z,7.95
2023-02-04T17:06:17.071Z,7.94
2023-02-04T17:08:45.726Z,7.94
2023-02-04T17:11:29.350Z,7.95
2023-02-04T17:14:02.770Z,7.93
2023-02-04T17:16:31.802Z,7.80
2023-02-04T17:19:00.557Z,7.77
2023-02-04T17:21:29.952Z,7.76
2023-02-04T17:24:04.313Z,7.79
2023-02-04T17:26:37.707Z,7.73
2023-02-04T17:29:17.651Z,7.67
2023-02-04T17:31:46.328Z,7.75
2023-02-04T17:34:14.870Z,7.84
2023-02-04T17:36:43.513Z,7.86
2023-02-04T17:40:14.641Z,7.82
2023-02-04T17:42:43.961Z,7.87
2023-02-04T17:45:12.544Z,7.95
2023-02-04T17:47:42.778Z,7.89
2023-02-04T17:50:12.126Z,7.83
2023-02-04T17:52:40.701Z,7.78
2023-02-04T17:55:18.000Z,7.57
2023-02-04T17:57:49.741Z,7.37
2023-02-04T18:00:26.318Z,7.40
2023-02-04T18:02:54.991Z,7.40
2023-02-04T18:05:25.650Z,7.45
2023-02-04T18:08:20.804Z,7.46
2023-02-04T18:10:50.409Z,7.53
2023-02-04T18:13:30.285Z,7.49
2023-02-04T18:16:00.627Z,7.44
2023-02-04T18:18:36.055Z,7.42
2023-02-04T18:21:23.295Z,7.43
2023-02-04T18:24:07.552Z,7.54
2023-02-04T18:26:43.289Z,7.61
2023-02-04T18:29:27.016Z,7.64
2023-02-04T18:32:10.638Z,7.65
2023-02-04T18:34:41.195Z,7.57
2023-02-04T18:37:33.642Z,7.54
2023-02-04T18:40:12.946Z,7.48
2023-02-04T18:42:43.790Z,7.45
2023-02-04T18:45:45.081Z,7.46
2023-02-04T18:48:20.585Z,7.42
2023-02-04T18:50:51.973Z,7.44
2023-02-04T18:53:25.671Z,7.43
2023-02-04T18:55:55.654Z,7.38
2023-02-04T18:58:39.873Z,7.25
2023-02-04T19:01:12.658Z,7.21
2023-02-04T19:03:56.012Z,7.29
2023-02-04T19:06:29.729Z,7.33
2023-02-04T19:09:18.292Z,7.34
2023-02-04T19:11:48.499Z,7.32
2023-02-04T19:14:43.435Z,7.33
2023-02-04T19:17:15.576Z,7.36
2023-02-04T19:19:47.727Z,7.40
2023-02-04T19:22:24.031Z,7.43
2023-02-04T19:24:57.924Z,7.46
2023-02-04T19:27:29.398Z,7.35
2023-02-04T19:30:00.304Z,7.41
2023-02-04T19:32:40.332Z,7.51
2023-02-04T19:35:30.341Z,7.46
2023-02-04T19:38:00.863Z,7.43
2023-02-04T19:40:35.262Z,7.40
2023-02-04T19:43:27.357Z,7.47
2023-02-04T19:45:56.027Z,7.41
2023-02-04T19:48:35.976Z,7.29
2023-02-04T19:51:32.707Z,7.29
2023-02-04T19:54:02.901Z,7.48
2023-02-04T19:56:36.505Z,7.54
2023-02-04T19:59:34.480Z,7.56
2023-02-04T20:02:22.947Z,7.55
2023-02-04T20:04:53.500Z,7.51
2023-02-04T20:07:23.900Z,7.51
2023-02-04T20:10:20.980Z,7.48
2023-02-04T20:13:13.112Z,7.49
2023-02-04T20:15:41.684Z,7.41
2023-02-04T20:18:20.403Z,7.34
2023-02-04T20:20:49.040Z,7.34
2023-02-04T20:23:22.507Z,7.33
2023-02-04T20:25:51.535Z,7.37
2023-02-04T20:28:56.421Z,7.41
2023-02-04T20:31:27.438Z,7.38
2023-02-04T20:33:59.686Z,7.33
2023-02-04T20:36:38.718Z,7.38
2023-02-04T20:39:13.802Z,7.34
2023-02-04T20:41:42.601Z,7.23
2023-02-04T20:44:22.857Z,7.19
2023-02-04T20:47:13.658Z,7.17
2023-02-04T20:49:43.008Z,7.12
2023-02-04T20:52:44.270Z,7.11
2023-02-04T20:55:17.601Z,7.01
2023-02-04T20:57:46.457Z,6.91
2023-02-04T21:00:24.117Z,6.92
2023-02-04T21:02:52.625Z,6.92
2023-02-04T21:05:22.576Z,7.09
2023-02-04T21:07:51.596Z,7.05
2023-02-04T21:10:20.248Z,7.02
2023-02-04T21:12:49.093Z,7.05
2023-02-04T21:15:18.477Z,7.04
2023-02-04T21:17:47.062Z,7.09
2023-02-04T21:20:15.901Z,7.10
2023-02-04T21:22:44.629Z,7.10
2023-02-04T21:25:13.328Z,7.15
2023-02-04T21:27:41.919Z,7.06
2023-02-04T21:30:11.685Z,7.08
2023-02-04T21:32:44.638Z,7.15
2023-02-04T21:35:13.815Z,7.15
2023-02-04T21:37:43.392Z,7.14
2023-02-04T21:40:13.310Z,7.18
2023-02-04T21:42:42.581Z,7.14
2023-02-04T21:45:11.232Z,7.21
2023-02-04T21:47:40.458Z,7.24
2023-02-04T21:50:10.739Z,7.21
2023-02-04T21:52:43.237Z,7.20
2023-02-04T21:55:13.271Z,7.19
2023-02-04T21:57:43.179Z,7.13
2023-02-04T22:00:12.059Z,7.20
2023-02-04T22:02:41.080Z,7.24
2023-02-04T22:05:13.826Z,7.22
2023-02-04T22:07:46.186Z,7.19
2023-02-04T22:10:17.335Z,7.19
2023-02-04T22:13:24.629Z,7.11
2023-02-04T22:15:55.266Z,7.21
2023-02-04T22:18:24.098Z,7.21
2023-02-04T22:20:52.880Z,7.15
2023-02-04T22:23:21.481Z,7.16
2023-02-04T22:25:50.579Z,7.14
2023-02-04T22:28:19.335Z,7.12
2023-02-04T22:30:48.290Z,7.15
2023-02-04T22:33:20.512Z,7.18
2023-02-04T22:35:49.888Z,7.12
2023-02-04T22:38:21.312Z,7.15
2023-02-04T22:44:36.428Z,7.19
2023-02-04T22:47:07.534Z,7.23
2023-02-04T22:49:36.103Z,7.16
2023-02-04T22:52:05.098Z,7.15
2023-02-04T22:54:44.810Z,7.20
2023-02-04T22:57:16.297Z,7.31
2023-02-04T22:59:44.932Z,7.43
2023-02-04T23:02:13.616Z,7.47
2023-02-04T23:04:44.129Z,7.57
2023-02-04T23:07:15.747Z,7.43
2023-02-04T23:09:44.337Z,7.25
2023-02-04T23:12:13.196Z,7.28
2023-02-04T23:14:45.507Z,7.34
2023-02-04T23:17:17.179Z,7.38
2023-02-04T23:19:45.681Z,7.45
2023-02-04T23:22:14.406Z,7.41
2023-02-04T23:24:42.896Z,7.41
2023-02-04T23:27:12.000Z,7.33
2023-02-04T23:29:40.504Z,7.36
2023-02-04T23:32:09.371Z,7.45
2023-02-04T23:34:37.994Z,7.44
2023-02-04T23:37:06.748Z,7.42
2023-02-04T23:39:35.989Z,7.32
2023-02-04T23:42:04.540Z,7.34
2023-02-04T23:44:33.114Z,7.39
2023-02-04T23:47:01.792Z,7.34
2023-02-04T23:49:30.333Z,7.34
2023-02-04T23:51:59.555Z,7.36
2023-02-04T23:54:28.452Z,7.34
2023-02-04T23:56:57.036Z,7.33
2023-02-04T23:59:26.268Z,7.38
